Wetterdaten: Woche 15.03.21 - 21.03.21 (KW11)
Datum Zeit Temp. Aussen Temp. o. S. Temp +5cm Feuchte Auss Luftdruck Regen Sonnenschein Regendauer Solar Windben Empfang
15.03.2021 00:00 5,2 C 4,6 C 3,2 C 92 % 1011,3 hPa 0,0 l/m 0,00 h 0,10 h 0 W/m 11,9 km/h (2 Bft) 99,52 %
15.03.2021 01:00 5,3 C 4,5 C 3,4 C 94 % 1010,6 hPa 1,0 l/m 0,00 h 1,00 h 0 W/m 9,7 km/h (2 Bft) 96,29 %
15.03.2021 02:00 5,2 C 4,4 C 3,4 C 96 % 1009,8 hPa 1,0 l/m 0,00 h 1,00 h 0 W/m 9,2 km/h (2 Bft) 98,78 %
15.03.2021 03:00 5,0 C 4,4 C 3,4 C 96 % 1008,9 hPa 0,2 l/m 0,00 h 0,43 h 0 W/m 7,4 km/h (2 Bft) 95,43 %
15.03.2021 04:00 5,0 C 4,4 C 3,7 C 97 % 1008,8 hPa 0,2 l/m 0,00 h 0,00 h 0 W/m 3,8 km/h (1 Bft) 95,67 %
15.03.2021 05:00 5,0 C 4,4 C 3,9 C 98 % 1009,3 hPa 0,6 l/m 0,00 h 0,83 h 0 W/m 9,4 km/h (2 Bft) 97,86 %
15.03.2021 06:00 4,7 C 4,0 C 3,5 C 98 % 1010,2 hPa 0,2 l/m 0,00 h 0,43 h 0 W/m 15,0 km/h (3 Bft) 97,68 %
15.03.2021 07:00 4,8 C 4,2 C 3,8 C 98 % 1011,0 hPa 0,2 l/m 0,03 h 0,43 h 30 W/m 11,0 km/h (2 Bft) 98,35 %
15.03.2021 08:00 5,2 C 5,3 C 4,5 C 98 % 1011,8 hPa 0,0 l/m 0,07 h 0,17 h 98 W/m 13,5 km/h (3 Bft) 97,87 %
15.03.2021 09:00 6,0 C 6,3 C 5,2 C 97 % 1012,6 hPa 0,0 l/m 0,23 h 0,00 h 164 W/m 17,9 km/h (3 Bft) 98,65 %
15.03.2021 10:00 6,8 C 8,7 C 7,5 C 93 % 1012,9 hPa 0,2 l/m 0,57 h 0,17 h 342 W/m 21,8 km/h (4 Bft) 97,06 %
15.03.2021 11:00 7,1 C 8,9 C 6,6 C 89 % 1013,4 hPa 0,8 l/m 0,27 h 0,43 h 253 W/m 20,2 km/h (4 Bft) 96,81 %
15.03.2021 12:00 8,0 C 10,0 C 7,4 C 85 % 1013,6 hPa 0,2 l/m 0,60 h 0,00 h 462 W/m 23,4 km/h (4 Bft) 95,31 %
15.03.2021 13:00 8,7 C 11,2 C 6,8 C 78 % 1013,9 hPa 0,0 l/m 0,53 h 0,00 h 402 W/m 30,0 km/h (5 Bft) 96,37 %
15.03.2021 14:00 9,1 C 11,2 C 6,7 C 75 % 1014,2 hPa 0,0 l/m 0,53 h 0,00 h 340 W/m 29,7 km/h (5 Bft) 98,65 %
15.03.2021 15:00 7,9 C 8,8 C 4,8 C 83 % 1014,8 hPa 0,6 l/m 0,27 h 0,67 h 209 W/m 29,4 km/h (5 Bft) 98,15 %
15.03.2021 16:00 6,5 C 6,9 C 4,3 C 90 % 1015,5 hPa 0,0 l/m 0,27 h 0,17 h 113 W/m 26,2 km/h (4 Bft) 95,32 %
15.03.2021 17:00 6,7 C 6,6 C 4,8 C 89 % 1016,2 hPa 0,0 l/m 0,37 h 0,03 h 84 W/m 25,2 km/h (4 Bft) 99,22 %
15.03.2021 18:00 6,3 C 5,7 C 4,3 C 89 % 1017,2 hPa 0,0 l/m 0,13 h 0,00 h 20 W/m 17,2 km/h (3 Bft) 97,67 %
15.03.2021 19:00 5,6 C 4,9 C 3,7 C 89 % 1017,9 hPa 0,0 l/m 0,00 h 0,00 h 0 W/m 16,7 km/h (3 Bft) 91,46 %
15.03.2021 20:00 5,3 C 4,7 C 3,4 C 91 % 1018,8 hPa 0,4 l/m 0,00 h 0,43 h 0 W/m 15,6 km/h (3 Bft) 90,20 %
15.03.2021 21:00 5,1 C 4,4 C 3,2 C 94 % 1019,3 hPa 0,0 l/m 0,00 h 0,43 h 0 W/m 13,6 km/h (3 Bft) 91,47 %
15.03.2021 22:00 5,0 C 4,4 C 3,5 C 95 % 1019,8 hPa 0,0 l/m 0,00 h 0,43 h 0 W/m 14,2 km/h (3 Bft) 97,72 %
15.03.2021 23:00 5,0 C 4,4 C 3,5 C 95 % 1020,1 hPa 0,0 l/m 0,00 h 0,70 h 0 W/m 13,3 km/h (3 Bft) 98,58 %
16.03.2021 00:00 5,0 C 4,4 C 3,8 C 95 % 1020,7 hPa 0,0 l/m 0,00 h 0,50 h 0 W/m 16,5 km/h (3 Bft) 99,08 %
16.03.2021 01:00 5,1 C 4,5 C 3,9 C 94 % 1021,1 hPa 0,0 l/m 0,00 h 0,00 h 0 W/m 14,4 km/h (3 Bft) 96,86 %
16.03.2021 02:00 5,2 C 4,6 C 3,9 C 92 % 1021,5 hPa 0,0 l/m 0,00 h 0,00 h 0 W/m 16,5 km/h (3 Bft) 95,14 %
16.03.2021 03:00 4,9 C 4,4 C 3,4 C 92 % 1021,8 hPa 0,0 l/m 0,00 h 0,00 h 0 W/m 14,5 km/h (3 Bft) 97,87 %
16.03.2021 04:00 4,8 C 4,4 C 3,4 C 92 % 1022,3 hPa 0,0 l/m 0,00 h 0,00 h 0 W/m 12,9 km/h (3 Bft) 96,51 %
16.03.2021 05:00 4,9 C 4,3 C 3,4 C 92 % 1022,7 hPa 0,0 l/m 0,00 h 0,00 h 0 W/m 8,8 km/h (2 Bft) 98,79 %
16.03.2021 06:00 4,8 C 4,4 C 3,4 C 94 % 1023,2 hPa 0,0 l/m 0,00 h 0,03 h 5 W/m 10,6 km/h (2 Bft) 99,11 %
16.03.2021 07:00 4,8 C 4,4 C 3,7 C 93 % 1023,5 hPa 0,0 l/m 0,00 h 0,00 h 31 W/m 8,5 km/h (2 Bft) 96,60 %
16.03.2021 08:00 5,5 C 5,8 C 4,8 C 93 % 1023,7 hPa 0,2 l/m 0,53 h 0,00 h 136 W/m 11,2 km/h (2 Bft) 96,64 %
16.03.2021 09:00 6,4 C 7,2 C 6,1 C 89 % 1024,0 hPa 0,0 l/m 0,67 h 0,00 h 206 W/m 17,0 km/h (3 Bft) 96,84 %
16.03.2021 10:00 6,9 C 7,2 C 5,8 C 86 % 1024,1 hPa 0,0 l/m 0,13 h 0,00 h 180 W/m 15,8 km/h (3 Bft) 95,89 %
16.03.2021 11:00 8,0 C 10,1 C 8,4 C 82 % 1024,0 hPa 0,0 l/m 0,67 h 0,00 h 360 W/m 15,8 km/h (3 Bft) 99,93 %
16.03.2021 12:00 8,2 C 8,8 C 6,6 C 80 % 1023,8 hPa 0,0 l/m 0,43 h 0,30 h 251 W/m 18,7 km/h (3 Bft) 97,42 %
16.03.2021 13:00 8,2 C 10,2 C 6,5 C 83 % 1023,6 hPa 0,0 l/m 0,90 h 0,13 h 393 W/m 16,3 km/h (3 Bft) 97,51 %
16.03.2021 14:00 8,7 C 11,9 C 7,0 C 82 % 1023,4 hPa 0,0 l/m 1,00 h 0,00 h 469 W/m 18,9 km/h (3 Bft) 97,25 %
16.03.2021 15:00 8,1 C 9,1 C 6,0 C 81 % 1023,4 hPa 0,0 l/m 0,67 h 0,00 h 257 W/m 16,8 km/h (3 Bft) 96,28 %
16.03.2021 16:00 7,7 C 8,1 C 5,4 C 82 % 1023,2 hPa 0,0 l/m 0,43 h 0,00 h 165 W/m 14,8 km/h (3 Bft) 98,72 %
16.03.2021 17:00 7,0 C 6,5 C 4,7 C 85 % 1023,2 hPa 0,0 l/m 0,00 h 0,00 h 47 W/m 13,1 km/h (3 Bft) 97,58 %
16.03.2021 18:00 6,3 C 5,7 C 3,8 C 89 % 1023,4 hPa 0,0 l/m 0,00 h 0,43 h 14 W/m 9,1 km/h (2 Bft) 97,38 %
16.03.2021 19:00 5,6 C 5,0 C 3,4 C 94 % 1023,5 hPa 0,2 l/m 0,00 h 0,67 h 0 W/m 6,6 km/h (2 Bft) 98,13 %
16.03.2021 20:00 5,3 C 4,7 C 3,4 C 95 % 1023,4 hPa 0,4 l/m 0,00 h 0,87 h 0 W/m 5,8 km/h (2 Bft) 95,68 %
16.03.2021 21:00 5,4 C 4,6 C 3,4 C 96 % 1023,4 hPa 0,2 l/m 0,00 h 1,00 h 0 W/m 5,1 km/h (1 Bft) 96,09 %
16.03.2021 22:00 5,0 C 4,4 C 3,4 C 96 % 1023,5 hPa 0,2 l/m 0,00 h 0,53 h 0 W/m 6,6 km/h (2 Bft) 98,13 %
16.03.2021 23:00 4,7 C 4,4 C 3,4 C 96 % 1023,8 hPa 0,2 l/m 0,00 h 0,70 h 0 W/m 6,7 km/h (2 Bft) 97,75 %
17.03.2021 00:00 4,6 C 3,9 C 3,1 C 97 % 1023,8 hPa 0,2 l/m 0,00 h 0,60 h 0 W/m 8,6 km/h (2 Bft) 95,57 %
17.03.2021 01:00 4,4 C 3,9 C 2,8 C 97 % 1024,1 hPa 0,0 l/m 0,00 h 0,00 h 0 W/m 8,3 km/h (2 Bft) 96,52 %
17.03.2021 02:00 4,1 C 3,9 C 2,8 C 97 % 1024,3 hPa 0,0 l/m 0,00 h 0,00 h 0 W/m 9,2 km/h (2 Bft) 99,22 %
17.03.2021 03:00 4,1 C 3,9 C 2,8 C 97 % 1024,6 hPa 0,0 l/m 0,00 h 0,57 h 0 W/m 12,4 km/h (3 Bft) 95,35 %
17.03.2021 04:00 3,9 C 3,4 C 2,7 C 97 % 1024,8 hPa 0,2 l/m 0,00 h 0,97 h 0 W/m 14,1 km/h (3 Bft) 94,43 %
17.03.2021 05:00 3,7 C 3,3 C 2,6 C 97 % 1024,8 hPa 0,2 l/m 0,00 h 0,47 h 0 W/m 11,0 km/h (2 Bft) 94,67 %
17.03.2021 06:00 3,8 C 3,3 C 2,8 C 97 % 1025,1 hPa 0,0 l/m 0,00 h 0,07 h 0 W/m 8,4 km/h (2 Bft) 97,71 %
17.03.2021 07:00 3,9 C 3,4 C 2,9 C 98 % 1025,2 hPa 0,0 l/m 0,00 h 0,20 h 14 W/m 12,0 km/h (2 Bft) 96,71 %
17.03.2021 08:00 4,2 C 4,3 C 3,4 C 98 % 1025,1 hPa 0,2 l/m 0,00 h 0,10 h 58 W/m 13,1 km/h (3 Bft) 98,64 %
17.03.2021 09:00 4,4 C 5,4 C 4,0 C 97 % 1025,5 hPa 0,0 l/m 0,13 h 0,00 h 153 W/m 13,4 km/h (3 Bft) 99,66 %
17.03.2021 10:00 5,4 C 6,5 C 5,1 C 89 % 1025,7 hPa 0,0 l/m 0,23 h 0,00 h 186 W/m 16,8 km/h (3 Bft) 94,60 %
17.03.2021 11:00 6,1 C 8,0 C 6,0 C 82 % 1025,6 hPa 0,0 l/m 0,53 h 0,00 h 259 W/m 20,1 km/h (4 Bft) 98,97 %
17.03.2021 12:00 7,3 C 10,4 C 6,8 C 76 % 1025,5 hPa 0,0 l/m 0,63 h 0,07 h 393 W/m 26,3 km/h (4 Bft) 97,70 %
17.03.2021 13:00 7,5 C 12,0 C 5,4 C 72 % 1025,5 hPa 0,0 l/m 0,47 h 0,00 h 404 W/m 24,2 km/h (4 Bft) 96,66 %
17.03.2021 14:00 7,9 C 10,3 C 5,4 C 66 % 1025,4 hPa 0,0 l/m 0,33 h 0,00 h 276 W/m 19,8 km/h (4 Bft) 97,08 %
17.03.2021 15:00 8,1 C 10,3 C 5,5 C 68 % 1025,3 hPa 0,0 l/m 0,37 h 0,00 h 230 W/m 14,9 km/h (3 Bft) 98,01 %
17.03.2021 16:00 7,8 C 10,2 C 4,8 C 71 % 1025,4 hPa 0,0 l/m 0,47 h 0,00 h 189 W/m 15,5 km/h (3 Bft) 96,61 %
17.03.2021 17:00 7,3 C 6,9 C 4,1 C 71 % 1025,7 hPa 0,0 l/m 0,00 h 0,00 h 56 W/m 19,0 km/h (3 Bft) 97,86 %
17.03.2021 18:00 6,2 C 5,2 C 2,7 C 70 % 1026,2 hPa 0,0 l/m 0,00 h 0,00 h 15 W/m 11,6 km/h (2 Bft) 99,45 %
17.03.2021 19:00 5,1 C 3,5 C 1,1 C 75 % 1026,2 hPa 0,0 l/m 0,00 h 0,00 h 0 W/m 3,9 km/h (1 Bft) 93,16 %
17.03.2021 20:00 4,1 C 3,0 C 0,6 C 80 % 1026,7 hPa 0,0 l/m 0,00 h 0,00 h 0 W/m 4,3 km/h (1 Bft) 96,21 %
17.03.2021 21:00 3,6 C 2,4 C 0,2 C 87 % 1027,4 hPa 0,0 l/m 0,00 h 0,00 h 0 W/m 9,8 km/h (2 Bft) 96,39 %
17.03.2021 22:00 3,0 C 2,0 C -0,0 C 90 % 1027,6 hPa 0,0 l/m 0,00 h 0,00 h 0 W/m 6,9 km/h (2 Bft) 99,79 %
17.03.2021 23:00 2,3 C 1,1 C -0,5 C 91 % 1027,8 hPa 0,0 l/m 0,00 h 0,00 h 0 W/m 0,5 km/h (0 Bft) 95,94 %
18.03.2021 00:00 1,7 C 0,8 C -0,7 C 92 % 1027,4 hPa 0,0 l/m 0,00 h 0,00 h 0 W/m 0,3 km/h (0 Bft) 98,57 %
18.03.2021 01:00 1,2 C 0,4 C -1,1 C 93 % 1027,1 hPa 0,0 l/m 0,00 h 0,00 h 0 W/m 0,0 km/h (0 Bft) 97,58 %
18.03.2021 02:00 0,8 C -0,2 C -1,2 C 94 % 1027,2 hPa 0,0 l/m 0,00 h 0,00 h 0 W/m 0,0 km/h (0 Bft) 96,58 %
18.03.2021 03:00 0,4 C -0,4 C -1,5 C 94 % 1027,0 hPa 0,0 l/m 0,00 h 0,00 h 0 W/m 0,1 km/h (0 Bft) 94,95 %
18.03.2021 04:00 0,4 C -0,0 C -1,1 C 95 % 1026,7 hPa 0,0 l/m 0,00 h 0,00 h 0 W/m 2,2 km/h (1 Bft) 98,28 %
18.03.2021 05:00 0,6 C 0,2 C -0,6 C 96 % 1026,8 hPa 0,0 l/m 0,00 h 0,00 h 0 W/m 4,1 km/h (1 Bft) 98,15 %
18.03.2021 06:00 0,5 C 0,0 C -1,1 C 96 % 1026,5 hPa 0,0 l/m 0,00 h 0,00 h 8 W/m 0,1 km/h (0 Bft) 97,17 %
18.03.2021 07:00 0,8 C 0,6 C -0,3 C 96 % 1026,1 hPa 0,0 l/m 0,00 h 0,00 h 37 W/m 0,6 km/h (0 Bft) 98,15 %
18.03.2021 08:00 1,4 C 2,2 C 1,1 C 96 % 1025,8 hPa 0,0 l/m 0,20 h 0,00 h 120 W/m 2,7 km/h (1 Bft) 98,65 %
18.03.2021 09:00 2,6 C 3,8 C 2,8 C 96 % 1025,8 hPa 0,0 l/m 0,37 h 0,00 h 192 W/m 3,8 km/h (1 Bft) 96,95 %
18.03.2021 10:00 3,7 C 4,7 C 3,6 C 93 % 1025,9 hPa 0,0 l/m 0,10 h 0,00 h 212 W/m 8,3 km/h (2 Bft) 96,86 %
18.03.2021 11:00 4,5 C 5,6 C 4,2 C 88 % 1025,5 hPa 0,0 l/m 0,23 h 0,00 h 252 W/m 5,9 km/h (2 Bft) 96,79 %
18.03.2021 12:00 5,3 C 5,9 C 4,2 C 85 % 1025,0 hPa 0,0 l/m 0,00 h 0,00 h 206 W/m 6,9 km/h (2 Bft) 96,44 %
18.03.2021 13:00 5,7 C 6,7 C 4,7 C 86 % 1024,3 hPa 0,0 l/m 0,33 h 0,03 h 291 W/m 9,1 km/h (2 Bft) 97,71 %
18.03.2021 14:00 6,4 C 7,1 C 5,1 C 84 % 1023,4 hPa 0,0 l/m 0,17 h 0,00 h 211 W/m 8,6 km/h (2 Bft) 95,10 %
18.03.2021 15:00 6,4 C 6,5 C 4,3 C 86 % 1022,6 hPa 0,0 l/m 0,00 h 0,07 h 142 W/m 6,3 km/h (2 Bft) 97,29 %
18.03.2021 16:00 6,8 C 8,3 C 5,0 C 86 % 1021,7 hPa 0,0 l/m 0,63 h 0,00 h 203 W/m 6,9 km/h (2 Bft) 97,58 %
18.03.2021 17:00 6,7 C 6,6 C 4,7 C 86 % 1020,8 hPa 0,0 l/m 0,50 h 0,00 h 85 W/m 7,0 km/h (2 Bft) 95,21 %
18.03.2021 18:00 6,3 C 5,6 C 4,1 C 88 % 1020,3 hPa 0,0 l/m 0,03 h 0,00 h 16 W/m 5,8 km/h (2 Bft) 97,53 %
18.03.2021 19:00 5,5 C 5,0 C 3,4 C 92 % 1020,0 hPa 0,0 l/m 0,00 h 0,07 h 0 W/m 6,5 km/h (2 Bft) 98,22 %
18.03.2021 20:00 5,5 C 5,0 C 3,4 C 93 % 1019,6 hPa 0,2 l/m 0,00 h 0,23 h 0 W/m 8,2 km/h (2 Bft) 97,98 %
18.03.2021 21:00 5,0 C 4,4 C 2,8 C 94 % 1019,2 hPa 0,0 l/m 0,00 h 0,17 h 0 W/m 9,9 km/h (2 Bft) 96,34 %
18.03.2021 22:00 4,7 C 4,1 C 2,8 C 96 % 1019,1 hPa 0,2 l/m 0,00 h 0,13 h 0 W/m 13,4 km/h (3 Bft) 96,59 %
18.03.2021 23:00 4,3 C 3,9 C 2,8 C 96 % 1019,1 hPa 0,0 l/m 0,00 h 0,13 h 0 W/m 12,0 km/h (2 Bft) 94,92 %
19.03.2021 00:00 4,1 C 3,9 C 2,7 C 96 % 1019,3 hPa 0,0 l/m 0,00 h 0,00 h 0 W/m 13,1 km/h (3 Bft) 99,30 %
19.03.2021 01:00 3,7 C 3,3 C 2,3 C 94 % 1019,7 hPa 0,0 l/m 0,00 h 0,00 h 0 W/m 13,0 km/h (3 Bft) 96,59 %
19.03.2021 02:00 3,4 C 2,8 C 1,9 C 92 % 1020,2 hPa 0,0 l/m 0,00 h 0,00 h 0 W/m 13,8 km/h (3 Bft) 95,62 %
19.03.2021 03:00 2,8 C 2,1 C 1,2 C 92 % 1020,5 hPa 0,0 l/m 0,00 h 0,00 h 0 W/m 8,9 km/h (2 Bft) 96,98 %
19.03.2021 04:00 2,7 C 2,2 C 1,5 C 93 % 1021,1 hPa 0,0 l/m 0,00 h 0,00 h 0 W/m 11,5 km/h (2 Bft) 99,08 %
19.03.2021 05:00 2,2 C 1,6 C 1,0 C 92 % 1021,7 hPa 0,0 l/m 0,00 h 0,00 h 0 W/m 8,8 km/h (2 Bft) 96,72 %
19.03.2021 06:00 1,4 C 0,4 C -0,2 C 93 % 1022,3 hPa 0,0 l/m 0,00 h 0,00 h 8 W/m 8,1 km/h (2 Bft) 93,31 %
19.03.2021 07:00 0,7 C 0,2 C -0,4 C 94 % 1023,1 hPa 0,0 l/m 0,00 h 0,00 h 26 W/m 6,5 km/h (2 Bft) 95,32 %
19.03.2021 08:00 1,3 C 2,1 C 0,7 C 93 % 1023,7 hPa 0,2 l/m 0,30 h 0,00 h 129 W/m 11,6 km/h (2 Bft) 92,85 %
19.03.2021 09:00 4,3 C 9,4 C 5,9 C 83 % 1024,3 hPa 0,0 l/m 0,90 h 0,00 h 306 W/m 13,9 km/h (3 Bft) 97,65 %
19.03.2021 10:00 5,8 C 8,9 C 7,1 C 75 % 1025,0 hPa 0,0 l/m 0,77 h 0,00 h 419 W/m 17,0 km/h (3 Bft) 95,95 %
19.03.2021 11:00 6,3 C 10,9 C 8,0 C 70 % 1025,4 hPa 0,0 l/m 0,50 h 0,00 h 427 W/m 17,7 km/h (3 Bft) 98,43 %
19.03.2021 12:00 8,0 C 12,7 C 7,1 C 63 % 1025,5 hPa 0,0 l/m 0,80 h 0,00 h 577 W/m 17,5 km/h (3 Bft) 96,65 %
19.03.2021 13:00 8,9 C 16,2 C 6,3 C 57 % 1025,5 hPa 0,0 l/m 0,80 h 0,00 h 625 W/m 18,2 km/h (3 Bft) 98,87 %
19.03.2021 14:00 9,2 C 14,2 C 6,2 C 54 % 1025,4 hPa 0,0 l/m 0,63 h 0,00 h 444 W/m 19,0 km/h (3 Bft) 99,14 %
19.03.2021 15:00 9,0 C 11,9 C 6,2 C 54 % 1025,5 hPa 0,0 l/m 0,53 h 0,00 h 289 W/m 19,3 km/h (3 Bft) 94,10 %
19.03.2021 16:00 8,4 C 9,4 C 5,3 C 55 % 1025,5 hPa 0,0 l/m 0,37 h 0,00 h 154 W/m 17,5 km/h (3 Bft) 98,30 %
19.03.2021 17:00 7,5 C 8,1 C 4,1 C 60 % 1025,7 hPa 0,0 l/m 0,47 h 0,00 h 85 W/m 17,3 km/h (3 Bft) 98,87 %
19.03.2021 18:00 6,7 C 5,9 C 3,1 C 63 % 1026,1 hPa 0,0 l/m 0,00 h 0,00 h 17 W/m 13,9 km/h (3 Bft) 94,30 %
19.03.2021 19:00 6,3 C 5,5 C 2,9 C 69 % 1026,5 hPa 0,0 l/m 0,00 h 0,00 h 0 W/m 11,6 km/h (2 Bft) 97,08 %
19.03.2021 20:00 5,9 C 4,9 C 2,4 C 73 % 1026,9 hPa 0,0 l/m 0,00 h 0,00 h 0 W/m 7,2 km/h (2 Bft) 98,24 %
19.03.2021 21:00 5,3 C 4,3 C 2,0 C 76 % 1027,0 hPa 0,0 l/m 0,00 h 0,00 h 0 W/m 3,6 km/h (1 Bft) 98,22 %
19.03.2021 22:00 5,0 C 4,3 C 1,8 C 79 % 1027,6 hPa 0,0 l/m 0,00 h 0,00 h 0 W/m 3,0 km/h (1 Bft) 95,94 %
19.03.2021 23:00 4,3 C 3,4 C 1,1 C 81 % 1028,2 hPa 0,0 l/m 0,00 h 0,00 h 0 W/m 5,8 km/h (2 Bft) 95,96 %
20.03.2021 00:00 3,4 C 2,1 C -0,1 C 83 % 1028,4 hPa 0,0 l/m 0,00 h 0,00 h 0 W/m 2,6 km/h (1 Bft) 95,66 %
20.03.2021 01:00 2,6 C 1,5 C -0,5 C 87 % 1028,6 hPa 0,0 l/m 0,00 h 0,00 h 0 W/m 3,4 km/h (1 Bft) 97,94 %
20.03.2021 02:00 2,4 C 1,7 C -0,5 C 89 % 1029,0 hPa 0,0 l/m 0,00 h 0,00 h 0 W/m 3,0 km/h (1 Bft) 97,79 %
20.03.2021 03:00 1,8 C 0,6 C -1,3 C 88 % 1029,0 hPa 0,0 l/m 0,00 h 0,00 h 0 W/m 3,5 km/h (1 Bft) 99,65 %
20.03.2021 04:00 0,6 C -0,8 C -2,5 C 87 % 1029,0 hPa 0,0 l/m 0,00 h 0,00 h 0 W/m 1,9 km/h (1 Bft) 95,78 %
20.03.2021 05:00 -0,2 C -1,5 C -3,1 C 86 % 1029,4 hPa 0,0 l/m 0,00 h 0,00 h 0 W/m 2,6 km/h (1 Bft) 96,51 %
20.03.2021 06:00 -1,0 C -2,0 C -3,6 C 85 % 1029,4 hPa 0,0 l/m 0,00 h 0,00 h 7 W/m 1,8 km/h (1 Bft) 95,78 %
20.03.2021 07:00 -1,3 C -1,9 C -3,6 C 86 % 1029,9 hPa 0,0 l/m 0,00 h 0,00 h 21 W/m 1,2 km/h (1 Bft) 97,15 %
20.03.2021 08:00 -0,2 C 1,3 C -1,5 C 87 % 1030,4 hPa 0,0 l/m 0,33 h 0,00 h 158 W/m 4,7 km/h (1 Bft) 95,04 %
20.03.2021 09:00 3,1 C 8,5 C 3,9 C 74 % 1030,6 hPa 0,0 l/m 0,97 h 0,00 h 338 W/m 8,8 km/h (2 Bft) 99,41 %
20.03.2021 10:00 5,5 C 11,4 C 8,2 C 60 % 1030,7 hPa 0,0 l/m 0,97 h 0,00 h 501 W/m 11,2 km/h (2 Bft) 98,30 %
20.03.2021 11:00 6,7 C 13,3 C 9,3 C 50 % 1030,4 hPa 0,0 l/m 1,00 h 0,00 h 518 W/m 8,2 km/h (2 Bft) 94,38 %
20.03.2021 12:00 6,8 C 11,8 C 7,1 C 47 % 1030,0 hPa 0,0 l/m 1,00 h 0,00 h 508 W/m 11,3 km/h (2 Bft) 97,31 %
20.03.2021 13:00 8,6 C 18,7 C 5,9 C 43 % 1029,3 hPa 0,0 l/m 1,00 h 0,00 h 663 W/m 9,4 km/h (2 Bft) 99,58 %
20.03.2021 14:00 8,9 C 16,8 C 5,6 C 48 % 1028,6 hPa 0,0 l/m 0,97 h 0,00 h 531 W/m 11,4 km/h (2 Bft) 96,16 %
20.03.2021 15:00 9,3 C 16,5 C 6,3 C 52 % 1028,1 hPa 0,0 l/m 1,00 h 0,00 h 474 W/m 11,4 km/h (2 Bft) 99,30 %
20.03.2021 16:00 8,5 C 10,0 C 5,8 C 57 % 1027,6 hPa 0,0 l/m 0,77 h 0,00 h 203 W/m 8,3 km/h (2 Bft) 96,37 %
20.03.2021 17:00 8,0 C 7,7 C 5,0 C 61 % 1027,0 hPa 0,0 l/m 0,00 h 0,00 h 65 W/m 5,4 km/h (1 Bft) 96,79 %
20.03.2021 18:00 7,7 C 7,2 C 4,5 C 64 % 1026,7 hPa 0,0 l/m 0,00 h 0,00 h 15 W/m 3,3 km/h (1 Bft) 99,26 %
20.03.2021 19:00 7,7 C 7,1 C 4,3 C 67 % 1026,5 hPa 0,0 l/m 0,00 h 0,00 h 0 W/m 4,4 km/h (1 Bft) 95,52 %
20.03.2021 20:00 7,4 C 6,7 C 3,9 C 69 % 1026,3 hPa 0,0 l/m 0,00 h 0,00 h 0 W/m 4,1 km/h (1 Bft) 95,66 %
20.03.2021 21:00 7,1 C 6,4 C 3,8 C 76 % 1026,2 hPa 0,0 l/m 0,00 h 0,00 h 0 W/m 10,3 km/h (2 Bft) 97,97 %
20.03.2021 22:00 6,4 C 5,7 C 3,3 C 85 % 1026,2 hPa 0,0 l/m 0,00 h 0,00 h 0 W/m 17,8 km/h (3 Bft) 98,64 %
20.03.2021 23:00 5,9 C 5,3 C 2,8 C 89 % 1025,9 hPa 0,0 l/m 0,00 h 0,00 h 0 W/m 10,5 km/h (2 Bft) 97,73 %
21.03.2021 00:00 5,7 C 5,0 C 2,7 C 91 % 1025,2 hPa 0,0 l/m 0,00 h 0,00 h 0 W/m 7,3 km/h (2 Bft) 95,57 %
21.03.2021 01:00 5,4 C 4,8 C 2,3 C 94 % 1025,0 hPa 0,0 l/m 0,00 h 0,00 h 0 W/m 9,1 km/h (2 Bft) 97,58 %
21.03.2021 02:00 5,1 C 4,4 C 2,8 C 95 % 1024,2 hPa 0,0 l/m 0,00 h 0,00 h 0 W/m 7,0 km/h (2 Bft) 96,02 %
21.03.2021 03:00 5,0 C 4,4 C 2,8 C 96 % 1023,3 hPa 0,0 l/m 0,00 h 0,00 h 0 W/m 8,9 km/h (2 Bft) 97,93 %
21.03.2021 04:00 5,0 C 4,4 C 2,8 C 96 % 1022,9 hPa 0,0 l/m 0,00 h 0,00 h 0 W/m 10,0 km/h (2 Bft) 97,74 %
21.03.2021 05:00 5,0 C 4,4 C 2,8 C 97 % 1022,7 hPa 0,0 l/m 0,00 h 0,17 h 0 W/m 10,6 km/h (2 Bft) 89,95 %
21.03.2021 06:00 5,1 C 4,4 C 3,1 C 98 % 1022,5 hPa 0,2 l/m 0,00 h 0,10 h 0 W/m 10,7 km/h (2 Bft) 92,87 %
21.03.2021 07:00 5,4 C 5,2 C 3,6 C 98 % 1022,5 hPa 0,0 l/m 0,00 h 0,00 h 33 W/m 12,9 km/h (3 Bft) 95,16 %
21.03.2021 08:00 5,8 C 5,9 C 4,1 C 98 % 1022,7 hPa 0,0 l/m 0,00 h 0,03 h 68 W/m 14,3 km/h (3 Bft) 97,22 %
21.03.2021 09:00 6,3 C 6,9 C 5,1 C 95 % 1023,0 hPa 0,0 l/m 0,23 h 0,00 h 169 W/m 24,6 km/h (4 Bft) 99,36 %
21.03.2021 10:00 6,9 C 7,2 C 5,6 C 88 % 1023,3 hPa 0,0 l/m 0,00 h 0,00 h 153 W/m 25,3 km/h (4 Bft) 97,36 %
21.03.2021 11:00 7,1 C 7,6 C 5,8 C 82 % 1023,4 hPa 0,0 l/m 0,13 h 0,00 h 197 W/m 26,8 km/h (4 Bft) 95,01 %
21.03.2021 12:00 7,7 C 8,3 C 6,1 C 75 % 1023,5 hPa 0,0 l/m 0,03 h 0,00 h 239 W/m 31,4 km/h (5 Bft) 99,26 %
21.03.2021 13:00 8,0 C 8,7 C 6,1 C 74 % 1023,4 hPa 0,0 l/m 0,10 h 0,00 h 226 W/m 30,9 km/h (5 Bft) 99,00 %
21.03.2021 14:00 8,4 C 8,8 C 6,1 C 71 % 1023,0 hPa 0,0 l/m 0,07 h 0,00 h 224 W/m 30,0 km/h (5 Bft) 95,43 %
21.03.2021 15:00 8,3 C 8,9 C 5,8 C 71 % 1022,7 hPa 0,0 l/m 0,07 h 0,00 h 176 W/m 26,4 km/h (4 Bft) 97,86 %
21.03.2021 16:00 8,0 C 8,3 C 5,3 C 72 % 1022,8 hPa 0,0 l/m 0,13 h 0,00 h 133 W/m 27,9 km/h (4 Bft) 99,43 %
21.03.2021 17:00 7,4 C 6,9 C 4,5 C 74 % 1022,8 hPa 0,0 l/m 0,00 h 0,00 h 52 W/m 21,3 km/h (4 Bft) 96,08 %
21.03.2021 18:00 6,9 C 6,2 C 3,8 C 76 % 1023,0 hPa 0,0 l/m 0,00 h 0,00 h 13 W/m 19,3 km/h (3 Bft) 97,03 %
21.03.2021 19:00 6,3 C 5,6 C 3,3 C 77 % 1023,5 hPa 0,0 l/m 0,00 h 0,00 h 0 W/m 17,3 km/h (3 Bft) 94,58 %
21.03.2021 20:00 6,0 C 5,2 C 2,9 C 81 % 1024,0 hPa 0,0 l/m 0,00 h 0,00 h 0 W/m 15,0 km/h (3 Bft) 96,81 %
21.03.2021 21:00 5,6 C 4,8 C 2,6 C 81 % 1024,2 hPa 0,0 l/m 0,00 h 0,00 h 0 W/m 14,3 km/h (3 Bft) 99,50 %
21.03.2021 22:00 5,2 C 4,4 C 2,3 C 82 % 1024,5 hPa 0,0 l/m 0,00 h 0,00 h 0 W/m 17,0 km/h (3 Bft) 97,14 %
21.03.2021 23:00 5,0 C 4,4 C 2,3 C 83 % 1024,6 hPa 0,0 l/m 0,00 h 0,00 h 0 W/m 12,7 km/h (3 Bft) 95,08 %
Min-Datum _ 20.03.21 20.03.21 20.03.21 20.03.21 15.03.21 - - - - 15.03.21 19.03.21
_ Min-Zeit 07:14 06:20 06:30 13:26 03:34 - - - - 04:18 06:40
Minimum _ -1,4 C -2,2 C -3,9 C 40 % 1008,7 hPa - - - - 0,0 km/h (0 Bft) 37,50 %
Max-Datum _ 19.03.21 20.03.21 19.03.21 15.03.21 20.03.21 15.03.21 15.03.21 15.03.21 17.03.21 15.03.21 15.03.21
_ Max-Zeit 13:46 13:36 11:44 05:00 10:12 01:04 12:08 06:08 13:08 14:14 00:00
Maximum _ 9,7 C 21,1 C 13,9 C 98 % 1030,8 hPa 1,0 l/m 0,07 h 0,07 h 855 W/m 48,3 km/h
NO (6 Bft)
100,00 %
Durchschnitt _ 5,3 C 5,7 C 3,5 C 85 % 1023,2 hPa #8,6 l/m #29:52 h #17:20 h 209 W/m 12,1 km/h (2 Bft) 96,96 %
© 2021 W. Hausmann